Time;durP1;ratioP1;P1;durP2;ratioP2;P2;SDS_P1;SDS_P2;PMS_P1;PMS_P2;Temp;Humidity;BMP_temperature;BMP_pressure;BME280_temperature;BME280_humidity;BME280_pressure;Samples;Min_cycle;Max_cycle;Signal;HPM_P1;HPM_P2
2021/04/06 00:02:20;;;;;;;18.58;8.43;;;10.30;99.90;;;;;;5008538;28;20560;-68
2021/04/06 00:04:51;;;;;;;19.42;8.60;;;10.50;99.90;;;;;;5001970;28;20120;-68
2021/04/06 00:07:20;;;;;;;15.52;8.25;;;10.40;99.90;;;;;;5001000;28;20535;-67
2021/04/06 00:09:50;;;;;;;19.52;8.15;;;10.20;99.90;;;;;;4995980;28;20448;-67
2021/04/06 00:12:19;;;;;;;20.80;8.18;;;10.30;99.90;;;;;;5009972;28;20034;-67
2021/04/06 00:14:46;;;;;;;20.55;7.30;;;10.20;99.90;;;;;;5010212;28;20036;-68
2021/04/06 00:17:15;;;;;;;21.65;7.20;;;10.00;99.90;;;;;;5019211;28;20022;-68
2021/04/06 00:19:43;;;;;;;18.48;6.88;;;10.00;99.90;;;;;;4998688;28;20026;-67
2021/04/06 00:22:11;;;;;;;20.70;7.18;;;10.00;99.90;;;;;;5009676;28;20380;-67
2021/04/06 00:24:42;;;;;;;13.05;6.32;;;10.10;99.90;;;;;;5007411;28;20026;-68
2021/04/06 00:27:16;;;;;;;18.33;7.00;;;10.10;99.90;;;;;;5006842;28;20167;-67
2021/04/06 00:29:47;;;;;;;12.48;6.68;;;10.10;99.90;;;;;;4997355;28;20076;-67
2021/04/06 00:32:15;;;;;;;16.13;7.03;;;10.00;99.90;;;;;;5012287;28;20045;-67
2021/04/06 00:34:42;;;;;;;13.32;6.57;;;9.90;99.90;;;;;;5001443;28;20529;-67
2021/04/06 00:37:14;;;;;;;19.38;7.25;;;9.80;99.90;;;;;;5010906;28;20022;-67
2021/04/06 00:39:41;;;;;;;15.38;7.10;;;9.70;99.90;;;;;;5000533;28;20117;-68
2021/04/06 00:42:19;;;;;;;20.08;6.50;;;9.80;99.90;;;;;;5010276;28;20097;-67
2021/04/06 00:44:52;;;;;;;15.32;6.57;;;9.80;99.90;;;;;;5013942;28;20236;-67
2021/04/06 00:47:24;;;;;;;14.43;6.30;;;9.70;99.90;;;;;;5010801;28;20029;-67
2021/04/06 00:49:53;;;;;;;15.75;5.80;;;9.70;99.90;;;;;;4997291;28;20060;-67
2021/04/06 00:52:20;;;;;;;14.30;5.65;;;9.60;99.90;;;;;;5041047;28;20034;-67
2021/04/06 00:54:52;;;;;;;13.60;5.85;;;9.60;99.90;;;;;;4996761;28;20034;-67
2021/04/06 00:57:17;;;;;;;17.88;5.47;;;9.60;99.90;;;;;;5008573;28;20608;-67
2021/04/06 01:00:20;;;;;;;14.60;5.18;;;9.60;99.90;;;;;;5005288;28;20034;-67
2021/04/06 01:03:01;;;;;;;15.38;4.97;;;9.60;99.90;;;;;;5010066;28;20033;-68
2021/04/06 01:05:28;;;;;;;9.25;4.90;;;9.50;99.90;;;;;;5005890;28;20050;-68
2021/04/06 01:07:56;;;;;;;11.40;4.90;;;9.50;99.90;;;;;;5009471;28;20072;-67
2021/04/06 01:10:24;;;;;;;10.75;4.55;;;9.50;99.90;;;;;;5001412;28;20022;-67
2021/04/06 01:12:51;;;;;;;13.07;4.43;;;9.40;99.90;;;;;;5006754;28;20041;-69
2021/04/06 01:15:18;;;;;;;18.73;4.88;;;9.40;99.90;;;;;;5002496;28;20096;-67
2021/04/06 01:17:45;;;;;;;10.63;4.07;;;9.20;99.90;;;;;;5005429;28;20034;-69
2021/04/06 01:20:14;;;;;;;18.45;4.53;;;9.20;99.90;;;;;;4999165;28;20101;-68
2021/04/06 01:22:42;;;;;;;10.45;3.53;;;9.20;99.90;;;;;;5007004;28;20518;-66
2021/04/06 01:25:20;;;;;;;13.82;4.65;;;9.20;99.90;;;;;;4999884;28;20022;-68
2021/04/06 01:27:47;;;;;;;16.33;4.25;;;9.20;99.90;;;;;;5014634;28;20026;-66
2021/04/06 01:30:15;;;;;;;12.48;3.97;;;9.30;99.90;;;;;;5006205;28;20236;-68
2021/04/06 01:32:42;;;;;;;16.20;4.03;;;9.30;99.90;;;;;;4999162;28;20034;-69
2021/04/06 01:35:09;;;;;;;14.30;3.92;;;9.40;99.90;;;;;;5020954;28;20033;-66
2021/04/06 01:37:35;;;;;;;15.48;4.38;;;9.40;99.90;;;;;;5009266;28;20711;-67
2021/04/06 01:40:04;;;;;;;10.88;4.03;;;9.30;99.90;;;;;;5009214;28;20026;-66
2021/04/06 01:42:35;;;;;;;10.82;3.92;;;9.30;99.90;;;;;;5010769;28;20375;-67
2021/04/06 01:45:06;;;;;;;9.10;3.58;;;9.30;99.90;;;;;;5007186;28;20033;-67
2021/04/06 01:47:32;;;;;;;7.22;3.38;;;9.30;99.90;;;;;;5008760;28;20104;-67
2021/04/06 01:49:57;;;;;;;13.43;3.88;;;9.30;99.90;;;;;;5009103;28;20177;-66
2021/04/06 01:52:24;;;;;;;10.65;4.10;;;9.20;99.90;;;;;;5006209;28;20112;-68
2021/04/06 01:54:52;;;;;;;10.75;4.10;;;9.20;99.90;;;;;;5007254;28;20044;-67
2021/04/06 01:57:35;;;;;;;10.50;4.40;;;9.20;99.90;;;;;;5006162;28;20033;-67
2021/04/06 02:00:12;;;;;;;8.63;4.22;;;9.20;99.90;;;;;;5005592;28;20026;-67
2021/04/06 02:02:42;;;;;;;11.15;3.67;;;9.20;99.90;;;;;;5009023;28;20029;-66
2021/04/06 02:05:11;;;;;;;12.25;3.30;;;9.30;99.90;;;;;;5008320;28;20509;-67
2021/04/06 02:07:39;;;;;;;11.38;4.22;;;9.20;99.90;;;;;;5008650;28;20090;-67
2021/04/06 02:10:07;;;;;;;15.45;3.85;;;9.10;99.90;;;;;;5010297;28;20021;-66
2021/04/06 02:12:43;;;;;;;9.55;4.03;;;9.10;99.90;;;;;;5009783;28;20117;-66
2021/04/06 02:15:11;;;;;;;9.77;4.38;;;9.20;99.90;;;;;;5009675;28;20025;-67
2021/04/06 02:17:47;;;;;;;8.73;3.97;;;9.10;99.90;;;;;;5009949;28;20029;-67
2021/04/06 02:20:25;;;;;;;14.07;4.00;;;9.00;99.90;;;;;;5024421;28;20406;-67
2021/04/06 02:23:01;;;;;;;11.70;3.78;;;9.10;99.90;;;;;;5006511;28;20029;-67
2021/04/06 02:25:29;;;;;;;10.73;4.20;;;9.10;99.90;;;;;;5010044;28;20149;-68
2021/04/06 02:27:55;;;;;;;21.25;4.15;;;9.10;99.90;;;;;;5007957;28;23134;-67
2021/04/06 02:30:31;;;;;;;10.15;4.22;;;9.10;99.90;;;;;;5004933;28;20402;-70
2021/04/06 02:33:01;;;;;;;10.98;4.07;;;9.10;99.90;;;;;;5004735;28;20407;-66
2021/04/06 02:35:27;;;;;;;11.15;4.65;;;9.20;99.90;;;;;;4999748;28;20105;-67
2021/04/06 02:37:53;;;;;;;10.43;3.65;;;9.20;99.90;;;;;;5001865;28;20109;-67
2021/04/06 02:40:20;;;;;;;10.13;3.67;;;9.20;99.90;;;;;;5009860;28;20029;-66
2021/04/06 02:42:50;;;;;;;11.65;4.10;;;9.30;99.90;;;;;;5009113;28;20056;-69
2021/04/06 02:45:19;;;;;;;11.38;4.25;;;9.20;99.90;;;;;;5005383;28;20530;-66
2021/04/06 02:47:52;;;;;;;8.85;4.00;;;9.20;99.90;;;;;;5008962;28;20021;-67
2021/04/06 02:50:26;;;;;;;8.82;3.72;;;9.30;99.90;;;;;;5003463;28;20118;-67
2021/04/06 02:52:53;;;;;;;9.23;3.78;;;9.30;99.90;;;;;;5007100;28;20049;-66
2021/04/06 02:55:20;;;;;;;6.93;3.90;;;9.30;99.90;;;;;;5008453;28;20026;-67
2021/04/06 02:57:54;;;;;;;8.43;4.20;;;9.20;99.90;;;;;;5008756;28;20110;-66
2021/04/06 03:00:26;;;;;;;12.02;3.67;;;9.30;99.90;;;;;;5008435;28;20368;-67
2021/04/06 03:02:56;;;;;;;9.70;4.28;;;9.30;99.90;;;;;;5005757;28;20022;-66
2021/04/06 03:05:28;;;;;;;10.68;3.60;;;9.30;99.90;;;;;;5000048;28;20114;-67
2021/04/06 03:07:54;;;;;;;10.30;4.20;;;9.30;99.90;;;;;;4990747;28;20035;-67
2021/04/06 03:10:20;;;;;;;12.27;4.10;;;9.30;99.90;;;;;;5000842;28;20423;-67
2021/04/06 03:12:48;;;;;;;12.70;3.70;;;9.30;99.90;;;;;;4990356;28;20030;-67
2021/04/06 03:15:20;;;;;;;10.40;4.68;;;9.30;99.90;;;;;;5000988;28;20105;-66
2021/04/06 03:17:48;;;;;;;12.48;3.85;;;9.30;99.90;;;;;;4990227;28;20030;-67
2021/04/06 03:20:14;;;;;;;9.77;4.00;;;9.30;99.90;;;;;;5001194;28;20088;-67
2021/04/06 03:22:40;;;;;;;9.60;3.67;;;9.30;99.90;;;;;;4989339;28;20555;-67
2021/04/06 03:25:06;;;;;;;8.23;3.95;;;9.40;99.90;;;;;;5001359;28;20446;-66
2021/04/06 03:27:33;;;;;;;13.45;4.93;;;9.40;99.90;;;;;;4995061;28;20156;-67
2021/04/06 03:30:01;;;;;;;10.18;3.97;;;9.30;99.90;;;;;;5006434;28;20105;-66
2021/04/06 03:32:27;;;;;;;12.25;4.05;;;9.30;99.90;;;;;;5008202;28;20030;-66
2021/04/06 03:34:53;;;;;;;7.50;3.95;;;9.30;99.90;;;;;;5006995;28;20545;-67
2021/04/06 03:37:21;;;;;;;12.63;4.13;;;9.30;99.90;;;;;;5008371;28;20108;-66
2021/04/06 03:39:48;;;;;;;13.32;3.78;;;9.30;99.90;;;;;;5008194;28;20041;-66
2021/04/06 03:42:22;;;;;;;13.30;4.63;;;9.40;99.90;;;;;;5006714;28;20030;-67
2021/04/06 03:44:48;;;;;;;9.85;4.03;;;9.50;99.90;;;;;;5011152;28;20423;-71
2021/04/06 03:47:13;;;;;;;10.15;3.80;;;9.40;99.90;;;;;;5012863;28;20030;-67
2021/04/06 03:49:47;;;;;;;15.40;4.47;;;9.40;99.90;;;;;;5011579;28;20018;-66
2021/04/06 03:52:12;;;;;;;10.95;4.00;;;9.40;99.90;;;;;;5011471;28;20026;-68
2021/04/06 03:54:49;;;;;;;8.20;4.07;;;9.40;99.90;;;;;;5002607;28;20092;-67
2021/04/06 03:57:50;;;;;;;;;;;9.40;99.90;;;;;;4994437;28;20029;-67
2021/04/06 04:00:11;;;;;;;12.30;5.93;;;9.40;99.90;;;;;;5004633;28;19964;-67
2021/04/06 04:02:38;;;;;;;11.55;4.30;;;9.40;99.90;;;;;;4993339;28;20018;-67
2021/04/06 04:05:04;;;;;;;8.90;3.78;;;9.40;99.90;;;;;;5004635;28;20065;-68
2021/04/06 04:07:33;;;;;;;6.30;4.30;;;9.50;99.90;;;;;;4992992;28;20054;-68
2021/04/06 04:09:58;;;;;;;11.45;4.25;;;9.40;99.90;;;;;;5004522;28;20026;-67
2021/04/06 04:12:24;;;;;;;9.95;4.38;;;9.30;99.90;;;;;;4993753;28;20049;-67
2021/04/06 04:14:50;;;;;;;10.65;5.22;;;9.20;99.90;;;;;;5004400;28;20045;-66
2021/04/06 04:17:15;;;;;;;11.80;4.82;;;9.10;99.90;;;;;;4993110;28;20029;-66
2021/04/06 04:19:41;;;;;;;8.30;4.78;;;9.10;99.90;;;;;;5003673;28;20034;-66
2021/04/06 04:22:07;;;;;;;18.25;5.65;;;9.20;99.90;;;;;;4993213;28;20022;-71
2021/04/06 04:24:32;;;;;;;11.75;4.53;;;9.10;99.90;;;;;;5002554;28;20391;-66
2021/04/06 04:26:58;;;;;;;10.50;5.35;;;9.10;99.90;;;;;;4995030;28;20049;-67
2021/04/06 04:29:24;;;;;;;16.90;4.80;;;9.10;99.90;;;;;;5001463;28;20056;-66
2021/04/06 04:31:50;;;;;;;14.68;5.38;;;8.90;99.90;;;;;;5012451;28;20033;-66
2021/04/06 04:34:17;;;;;;;9.60;4.93;;;8.80;99.90;;;;;;5006188;28;20506;-68
2021/04/06 04:36:43;;;;;;;8.88;5.07;;;8.90;99.90;;;;;;4996137;28;20121;-66
2021/04/06 04:39:09;;;;;;;14.57;5.63;;;9.00;99.90;;;;;;4999258;28;20518;-67
2021/04/06 04:41:34;;;;;;;15.10;5.40;;;8.90;99.90;;;;;;4997976;28;20014;-66
2021/04/06 04:44:00;;;;;;;12.13;5.50;;;8.90;99.90;;;;;;4998014;28;20057;-66
2021/04/06 04:46:28;;;;;;;9.43;4.82;;;9.00;99.90;;;;;;4999034;28;20529;-66
2021/04/06 04:48:54;;;;;;;15.40;5.10;;;9.00;99.90;;;;;;4996605;28;20027;-66
2021/04/06 04:51:20;;;;;;;11.98;5.43;;;8.90;99.90;;;;;;4999122;28;20503;-66
2021/04/06 04:53:45;;;;;;;11.07;5.07;;;8.90;99.90;;;;;;4994644;28;20070;-66
2021/04/06 04:56:11;;;;;;;15.30;5.00;;;9.00;99.90;;;;;;5000549;28;20014;-67
2021/04/06 04:58:37;;;;;;;8.40;4.93;;;8.80;99.90;;;;;;4995091;28;20030;-66
2021/04/06 05:01:02;;;;;;;12.48;4.75;;;8.90;99.90;;;;;;5001423;28;20033;-66
2021/04/06 05:03:28;;;;;;;13.00;5.25;;;8.90;99.90;;;;;;4994782;28;20041;-67
2021/04/06 05:05:54;;;;;;;13.65;5.18;;;8.80;99.90;;;;;;5000277;28;20697;-65
2021/04/06 05:08:19;;;;;;;7.78;4.88;;;8.90;99.90;;;;;;5004233;28;20481;-65
2021/04/06 05:10:45;;;;;;;13.38;5.10;;;8.80;99.90;;;;;;5011865;28;20060;-66
2021/04/06 05:13:11;;;;;;;9.68;5.30;;;9.00;99.90;;;;;;5010020;28;20083;-66
2021/04/06 05:15:37;;;;;;;13.30;5.47;;;8.80;99.90;;;;;;5011394;28;20044;-66
2021/04/06 05:18:03;;;;;;;11.15;5.35;;;9.00;99.90;;;;;;5009321;28;20548;-66
2021/04/06 05:20:28;;;;;;;12.55;4.80;;;8.90;99.90;;;;;;5010954;28;20022;-68
2021/04/06 05:22:54;;;;;;;10.45;5.28;;;8.80;99.90;;;;;;5010760;28;20053;-66
2021/04/06 05:25:20;;;;;;;9.88;5.63;;;8.70;99.90;;;;;;5002669;28;20521;-66
2021/04/06 05:27:45;;;;;;;8.30;5.38;;;8.90;99.90;;;;;;4992516;28;20030;-66
2021/04/06 05:30:11;;;;;;;10.13;5.78;;;8.60;99.90;;;;;;5002927;28;20023;-65
2021/04/06 05:32:37;;;;;;;9.63;5.35;;;8.60;99.90;;;;;;4991905;28;20031;-66
2021/04/06 05:35:04;;;;;;;12.88;6.03;;;8.50;99.90;;;;;;5003002;28;20506;-67
2021/04/06 05:37:30;;;;;;;13.73;6.00;;;8.60;99.90;;;;;;4991445;28;20105;-66
2021/04/06 05:39:56;;;;;;;14.52;6.20;;;8.60;99.90;;;;;;5004056;28;20029;-62
2021/04/06 05:42:22;;;;;;;12.23;5.80;;;8.60;99.90;;;;;;5006139;28;20537;-62
2021/04/06 05:44:48;;;;;;;9.18;6.18;;;8.60;99.90;;;;;;5009083;28;20525;-62
2021/04/06 05:47:19;;;;;;;9.93;6.13;;;8.60;99.90;;;;;;5020555;28;20513;-62
2021/04/06 05:49:45;;;;;;;12.32;6.30;;;8.50;99.90;;;;;;5017131;28;20601;-62
2021/04/06 05:52:12;;;;;;;13.10;6.32;;;8.40;99.90;;;;;;5006639;28;20168;-62
2021/04/06 05:54:37;;;;;;;12.30;5.50;;;8.50;99.90;;;;;;5015552;28;20042;-63
2021/04/06 05:57:03;;;;;;;12.10;5.30;;;8.40;99.90;;;;;;5025545;28;20024;-61
2021/04/06 05:59:29;;;;;;;10.75;6.10;;;8.70;99.90;;;;;;5014797;28;20029;-62
2021/04/06 06:01:55;;;;;;;12.15;5.85;;;8.40;99.90;;;;;;5011728;28;20113;-61
2021/04/06 06:04:21;;;;;;;13.20;5.90;;;8.50;99.90;;;;;;5007707;28;20116;-61
2021/04/06 06:06:47;;;;;;;9.73;5.95;;;8.50;99.90;;;;;;5006989;28;20050;-62
2021/04/06 06:09:26;;;;;;;13.63;6.00;;;8.40;99.90;;;;;;5007700;28;20672;-62
2021/04/06 06:11:57;;;;;;;13.98;6.63;;;8.40;99.90;;;;;;4992666;28;20038;-63
2021/04/06 06:14:27;;;;;;;11.38;6.32;;;8.40;99.90;;;;;;5017154;28;20153;-62
2021/04/06 06:16:53;;;;;;;10.00;5.47;;;8.70;99.90;;;;;;5010832;28;20026;-62
2021/04/06 06:19:19;;;;;;;15.95;7.32;;;8.70;99.90;;;;;;5004221;28;20104;-62
2021/04/06 06:21:49;;;;;;;13.38;6.10;;;8.60;99.90;;;;;;4993852;28;20050;-62
2021/04/06 06:24:38;;;;;;;17.65;6.57;;;8.60;99.90;;;;;;4997702;28;20045;-62
2021/04/06 06:27:28;;;;;;;11.80;5.90;;;8.70;99.90;;;;;;4992545;28;20030;-62
2021/04/06 06:29:54;;;;;;;10.13;6.15;;;8.60;99.90;;;;;;5002008;28;20041;-62
2021/04/06 06:32:23;;;;;;;13.18;5.93;;;8.50;99.90;;;;;;4990914;28;20027;-63
2021/04/06 06:34:50;;;;;;;12.55;5.75;;;8.70;99.90;;;;;;5016826;28;20407;-62
2021/04/06 06:37:26;;;;;;;18.15;6.20;;;8.40;99.90;;;;;;4990337;28;20026;-62
2021/04/06 06:39:52;;;;;;;11.63;6.38;;;8.50;99.90;;;;;;5001684;28;20109;-62
2021/04/06 06:42:20;;;;;;;12.60;6.38;;;8.70;99.90;;;;;;4990966;28;20113;-62
2021/04/06 06:44:46;;;;;;;10.30;6.03;;;8.70;99.90;;;;;;5001730;28;20037;-62
2021/04/06 06:47:23;;;;;;;13.50;5.97;;;8.60;99.90;;;;;;4990868;28;20041;-62
2021/04/06 06:49:54;;;;;;;11.15;6.28;;;8.70;99.90;;;;;;5001522;28;20033;-62
2021/04/06 06:52:23;;;;;;;12.20;6.60;;;8.70;99.90;;;;;;4989721;28;20034;-63
2021/04/06 06:54:51;;;;;;;8.82;6.03;;;8.50;99.90;;;;;;5001596;28;20026;-62
2021/04/06 06:57:25;;;;;;;12.02;6.50;;;8.70;99.90;;;;;;5005704;28;20033;-62
2021/04/06 06:59:50;;;;;;;14.02;6.03;;;8.80;99.90;;;;;;5001498;28;20030;-62
2021/04/06 07:02:28;;;;;;;14.68;8.15;;;8.80;99.90;;;;;;4990545;28;20026;-62
2021/04/06 07:05:14;;;;;;;21.48;13.05;;;8.90;99.90;;;;;;5001363;28;20506;-63
2021/04/06 07:07:51;;;;;;;;;;;8.90;99.90;;;;;;4989083;28;20125;-63
2021/04/06 07:10:18;;;;;;;28.40;15.53;;;8.90;99.90;;;;;;5001240;28;19964;-63
2021/04/06 07:12:51;;;;;;;25.00;13.02;;;8.90;99.90;;;;;;4989939;28;20077;-62
2021/04/06 07:15:18;;;;;;;19.15;10.48;;;9.00;99.90;;;;;;5001203;28;20026;-62
2021/04/06 07:17:44;;;;;;;13.27;7.55;;;8.90;99.90;;;;;;5004192;28;20505;-63
2021/04/06 07:20:23;;;;;;;15.73;7.18;;;8.90;99.90;;;;;;5001421;28;20023;-62
2021/04/06 07:22:55;;;;;;;24.30;8.48;;;9.00;99.90;;;;;;5004333;28;20036;-63
2021/04/06 07:25:21;;;;;;;12.50;7.13;;;9.00;99.90;;;;;;4998930;28;20032;-63
2021/04/06 07:27:47;;;;;;;16.58;8.88;;;9.10;99.90;;;;;;5008421;28;20565;-63
2021/04/06 07:30:14;;;;;;;18.92;8.20;;;9.00;99.90;;;;;;5000945;28;20081;-62
2021/04/06 07:32:41;;;;;;;13.27;7.47;;;9.10;99.90;;;;;;4989540;28;20041;-62
2021/04/06 07:35:10;;;;;;;24.40;8.07;;;9.30;99.90;;;;;;5001160;28;20034;-62
2021/04/06 07:37:41;;;;;;;15.02;7.40;;;9.40;99.90;;;;;;4989180;28;20077;-63
2021/04/06 07:40:10;;;;;;;16.75;7.57;;;9.60;99.90;;;;;;5001211;28;20030;-62
2021/04/06 07:42:41;;;;;;;17.98;7.72;;;9.60;99.90;;;;;;4990138;28;20540;-63
2021/04/06 07:45:10;;;;;;;20.70;8.57;;;9.60;99.90;;;;;;5001479;28;20097;-62
2021/04/06 07:47:38;;;;;;;18.80;7.82;;;9.70;99.90;;;;;;4989873;28;20038;-63
2021/04/06 07:50:11;;;;;;;13.45;7.63;;;9.80;99.90;;;;;;5000741;28;20026;-62
2021/04/06 07:52:36;;;;;;;13.40;8.27;;;9.60;99.90;;;;;;4989291;28;20035;-62
2021/04/06 07:55:02;;;;;;;19.73;8.27;;;9.80;99.90;;;;;;5001806;28;20018;-62
2021/04/06 07:57:49;;;;;;;16.80;7.00;;;9.80;99.90;;;;;;5008889;28;20029;-62
2021/04/06 08:00:47;;;;;;;13.05;7.82;;;9.80;99.90;;;;;;5003554;28;20034;-62
2021/04/06 08:03:13;;;;;;;15.55;7.47;;;10.00;99.90;;;;;;5011817;28;20034;-62
2021/04/06 08:05:38;;;;;;;20.48;7.82;;;10.00;99.90;;;;;;5022862;28;20449;-62
2021/04/06 08:08:33;;;;;;;20.08;7.53;;;10.10;99.90;;;;;;5021034;28;20462;-62
2021/04/06 08:10:59;;;;;;;19.42;8.82;;;10.30;99.90;;;;;;4998174;28;20026;-61
2021/04/06 08:13:27;;;;;;;13.00;6.82;;;10.30;99.90;;;;;;4991724;28;20030;-62
2021/04/06 08:16:11;;;;;;;18.67;7.00;;;10.20;99.90;;;;;;4998204;28;20022;-61
2021/04/06 08:18:54;;;;;;;20.10;7.68;;;10.20;99.90;;;;;;4991535;28;20519;-62
2021/04/06 08:21:25;;;;;;;18.90;7.45;;;10.30;99.90;;;;;;5001357;28;20415;-62
2021/04/06 08:23:52;;;;;;;13.60;7.00;;;10.20;99.90;;;;;;5002580;28;20599;-62
2021/04/06 08:26:32;;;;;;;14.15;7.32;;;10.40;99.90;;;;;;4997032;28;20404;-62
2021/04/06 08:29:22;;;;;;;12.80;6.65;;;10.70;99.90;;;;;;4995226;28;20421;-62
2021/04/06 08:32:13;;;;;;;12.20;6.70;;;10.60;99.90;;;;;;5009596;28;20109;-62
2021/04/06 08:34:49;;;;;;;16.90;6.35;;;10.40;99.90;;;;;;5002715;28;20030;-62
2021/04/06 08:37:17;;;;;;;14.73;6.28;;;10.60;99.90;;;;;;4992630;28;20034;-62
2021/04/06 08:39:44;;;;;;;19.83;6.35;;;10.60;99.90;;;;;;5003146;28;20097;-62
2021/04/06 08:42:14;;;;;;;16.00;6.07;;;10.40;99.90;;;;;;4993330;28;20044;-63
2021/04/06 08:44:42;;;;;;;14.68;6.63;;;10.40;99.90;;;;;;5002459;28;20026;-62
2021/04/06 08:47:08;;;;;;;13.93;6.40;;;10.30;99.90;;;;;;4993448;28;20026;-62
2021/04/06 08:49:41;;;;;;;14.95;6.45;;;10.70;99.90;;;;;;5001888;28;20139;-62
2021/04/06 08:52:13;;;;;;;12.52;5.65;;;10.60;99.90;;;;;;5008285;28;20507;-63
2021/04/06 08:54:39;;;;;;;13.93;6.10;;;10.80;99.90;;;;;;5002495;28;20672;-62
2021/04/06 08:57:07;;;;;;;11.05;5.88;;;10.90;99.90;;;;;;4993902;28;20027;-63
2021/04/06 08:59:39;;;;;;;13.85;5.97;;;11.00;99.90;;;;;;5001658;28;20044;-62
2021/04/06 09:02:05;;;;;;;13.60;5.53;;;10.90;99.90;;;;;;4993816;28;20038;-62
2021/04/06 09:04:32;;;;;;;10.48;6.28;;;10.70;99.90;;;;;;5001397;28;20502;-62
2021/04/06 09:06:58;;;;;;;13.55;5.55;;;10.70;99.90;;;;;;4993664;28;20639;-62
2021/04/06 09:09:31;;;;;;;10.88;5.32;;;11.00;99.90;;;;;;5000179;28;20033;-62
2021/04/06 09:12:01;;;;;;;13.57;5.15;;;11.40;99.90;;;;;;5003710;28;20395;-62
2021/04/06 09:14:29;;;;;;;11.13;5.50;;;11.60;99.90;;;;;;5005827;28;20057;-63
2021/04/06 09:16:55;;;;;;;13.48;5.68;;;11.30;99.90;;;;;;4994907;28;20509;-64
2021/04/06 09:19:24;;;;;;;13.82;5.05;;;11.20;99.90;;;;;;5014185;28;20430;-63
2021/04/06 09:21:54;;;;;;;8.43;5.13;;;11.30;99.90;;;;;;4994797;28;20081;-63
2021/04/06 09:24:22;;;;;;;9.60;5.07;;;11.20;99.90;;;;;;4999452;28;20180;-62
2021/04/06 09:26:51;;;;;;;8.60;4.63;;;11.40;99.90;;;;;;4995822;28;20030;-62
2021/04/06 09:29:25;;;;;;;12.75;5.22;;;11.80;99.90;;;;;;4998683;28;20067;-62
2021/04/06 09:32:03;;;;;;;18.40;6.50;;;11.50;99.90;;;;;;4995314;28;20614;-62
2021/04/06 09:34:32;;;;;;;10.93;5.53;;;11.60;99.90;;;;;;5015783;28;20037;-62
2021/04/06 09:37:05;;;;;;;13.60;5.57;;;11.10;99.90;;;;;;5027545;28;20510;-62
2021/04/06 09:39:32;;;;;;;8.73;5.53;;;11.00;99.90;;;;;;5016015;28;20033;-63
2021/04/06 09:42:00;;;;;;;14.77;5.43;;;10.80;99.90;;;;;;5025296;28;20033;-63
2021/04/06 09:44:28;;;;;;;10.90;5.25;;;10.90;99.90;;;;;;5008018;28;20018;-62
2021/04/06 09:46:57;;;;;;;10.88;5.30;;;11.00;99.90;;;;;;5010114;28;20038;-62
2021/04/06 09:49:28;;;;;;;10.80;4.55;;;11.20;99.90;;;;;;5002402;28;20033;-62
2021/04/06 09:51:54;;;;;;;12.45;4.65;;;11.10;99.90;;;;;;5009300;28;20505;-63
2021/04/06 09:54:34;;;;;;;6.65;4.93;;;11.10;99.90;;;;;;5004658;28;20053;-62
2021/04/06 09:57:09;;;;;;;9.98;4.85;;;11.10;99.90;;;;;;4993106;28;20034;-63
2021/04/06 09:59:35;;;;;;;11.60;4.80;;;11.00;99.90;;;;;;5000486;28;20075;-63
2021/04/06 10:02:01;;;;;;;9.70;5.07;;;11.00;99.90;;;;;;4994807;28;20152;-63
2021/04/06 10:04:38;;;;;;;13.77;5.40;;;11.00;99.90;;;;;;5004646;28;20026;-63
2021/04/06 10:07:09;;;;;;;10.57;5.35;;;11.10;99.90;;;;;;4991650;28;20613;-63
2021/04/06 10:09:42;;;;;;;9.07;5.32;;;10.90;99.90;;;;;;5015295;28;20034;-63
2021/04/06 10:12:09;;;;;;;10.82;5.45;;;11.00;99.90;;;;;;4992241;28;20014;-63
2021/04/06 10:14:36;;;;;;;11.60;5.15;;;11.20;99.90;;;;;;4999739;28;20449;-63
2021/04/06 10:17:08;;;;;;;11.32;5.78;;;11.10;99.90;;;;;;4992797;28;20119;-63
2021/04/06 10:19:37;;;;;;;10.43;5.28;;;11.30;99.90;;;;;;5000006;28;20033;-63
2021/04/06 10:22:08;;;;;;;15.32;5.22;;;11.50;99.90;;;;;;4996703;28;20030;-63
2021/04/06 10:24:45;;;;;;;13.05;5.45;;;11.60;99.90;;;;;;5004135;28;20541;-63
2021/04/06 10:27:26;;;;;;;5.63;4.85;;;11.30;99.90;;;;;;4991837;28;20510;-63
2021/04/06 10:29:57;;;;;;;11.65;5.80;;;11.50;99.90;;;;;;5002105;28;20371;-63
2021/04/06 10:32:28;;;;;;;10.10;4.95;;;11.20;99.90;;;;;;4990819;28;20023;-63
2021/04/06 10:35:00;;;;;;;8.10;4.68;;;11.10;99.90;;;;;;5001748;28;20041;-63
2021/04/06 10:37:38;;;;;;;11.18;4.70;;;11.10;99.90;;;;;;5018458;28;20072;-63
2021/04/06 10:40:28;;;;;;;13.30;5.10;;;11.10;99.90;;;;;;5009066;28;20029;-61
2021/04/06 10:42:56;;;;;;;9.75;4.90;;;11.40;99.90;;;;;;5011634;28;20029;-62
2021/04/06 10:45:24;;;;;;;6.72;4.60;;;11.30;99.90;;;;;;5008882;28;20026;-62
2021/04/06 10:48:02;;;;;;;14.48;4.70;;;11.10;99.90;;;;;;5008630;28;20029;-62
2021/04/06 10:50:30;;;;;;;10.85;4.45;;;11.40;99.90;;;;;;5000144;28;20105;-63
2021/04/06 10:52:56;;;;;;;7.00;4.65;;;11.50;99.90;;;;;;4997410;28;20380;-63
2021/04/06 10:55:36;;;;;;;9.27;5.10;;;11.40;99.90;;;;;;5001030;28;20545;-63
2021/04/06 10:58:03;;;;;;;7.35;5.07;;;11.30;99.90;;;;;;4991185;28;20058;-63
2021/04/06 11:00:30;;;;;;;11.20;5.25;;;11.10;99.90;;;;;;5008643;28;20084;-64
2021/04/06 11:03:38;;;;;;;8.75;4.60;;;11.20;99.90;;;;;;5007750;28;20029;-63
2021/04/06 11:06:29;;;;;;;9.48;4.15;;;11.30;99.90;;;;;;4984797;28;20089;-63
2021/04/06 11:08:56;;;;;;;13.20;4.13;;;11.30;99.90;;;;;;5003779;28;20058;-63
2021/04/06 11:11:25;;;;;;;4.75;3.67;;;11.30;99.90;;;;;;5008402;28;20495;-63
2021/04/06 11:13:52;;;;;;;5.88;2.97;;;11.00;99.90;;;;;;5006480;28;20038;-63
2021/04/06 11:16:17;;;;;;;8.20;3.22;;;11.20;99.90;;;;;;5008850;28;20553;-63
2021/04/06 11:18:54;;;;;;;7.35;3.05;;;11.20;99.90;;;;;;5004144;28;20058;-63
2021/04/06 11:21:20;;;;;;;7.90;3.15;;;11.20;99.90;;;;;;5007963;28;20076;-63
2021/04/06 11:23:45;;;;;;;8.45;2.88;;;11.30;99.90;;;;;;5006722;28;20453;-63
2021/04/06 11:26:11;;;;;;;8.40;3.17;;;11.20;99.90;;;;;;5009199;28;20022;-63
2021/04/06 11:28:37;;;;;;;8.50;3.05;;;11.10;99.90;;;;;;5006741;28;20057;-63
2021/04/06 11:31:03;;;;;;;8.95;3.10;;;11.10;99.90;;;;;;5008914;28;20014;-63
2021/04/06 11:33:29;;;;;;;6.45;3.15;;;11.10;99.90;;;;;;5006554;28;20046;-63
2021/04/06 11:35:54;;;;;;;11.23;3.55;;;10.90;99.90;;;;;;5007983;28;20460;-63
2021/04/06 11:38:20;;;;;;;7.47;3.28;;;11.10;99.90;;;;;;5007092;28;20448;-63
2021/04/06 11:40:46;;;;;;;5.47;2.90;;;11.10;99.90;;;;;;4998920;28;20026;-63
2021/04/06 11:43:11;;;;;;;4.90;2.47;;;11.00;99.90;;;;;;4991596;28;20085;-63
2021/04/06 11:45:37;;;;;;;6.97;2.83;;;10.90;99.90;;;;;;4998511;28;20078;-63
2021/04/06 11:48:03;;;;;;;5.82;3.05;;;10.80;99.90;;;;;;4990567;28;20053;-63
2021/04/06 11:50:29;;;;;;;13.73;3.03;;;10.80;99.90;;;;;;4999440;28;20585;-63
2021/04/06 11:52:54;;;;;;;7.28;3.58;;;11.10;99.90;;;;;;5007227;28;20034;-62
2021/04/06 11:55:20;;;;;;;5.05;2.78;;;11.30;99.90;;;;;;5008287;28;20105;-62
2021/04/06 11:57:46;;;;;;;6.43;2.95;;;11.30;99.90;;;;;;5007954;28;20025;-63
2021/04/06 12:00:13;;;;;;;4.15;2.92;;;11.70;99.90;;;;;;5008016;28;20537;-62
2021/04/06 12:02:39;;;;;;;5.70;2.88;;;11.70;99.90;;;;;;5008155;28;20042;-65
2021/04/06 12:05:05;;;;;;;5.80;2.58;;;11.70;99.90;;;;;;5010154;28;20048;-64
2021/04/06 12:07:30;;;;;;;4.15;2.50;;;11.90;99.90;;;;;;5011128;28;20100;-65
2021/04/06 12:09:58;;;;;;;4.72;2.80;;;12.00;99.90;;;;;;5009893;28;20041;-64
2021/04/06 12:12:24;;;;;;;6.75;2.42;;;12.00;99.90;;;;;;5012351;28;20022;-65
2021/04/06 12:14:49;;;;;;;6.93;2.58;;;12.90;99.90;;;;;;5011323;28;20038;-65
2021/04/06 12:17:15;;;;;;;10.57;3.30;;;13.10;99.90;;;;;;5011397;28;20034;-64
2021/04/06 12:19:41;;;;;;;6.50;2.60;;;13.40;99.90;;;;;;5006552;28;20491;-62
2021/04/06 12:22:06;;;;;;;4.88;2.75;;;13.70;99.90;;;;;;4993720;28;20018;-64
2021/04/06 12:24:32;;;;;;;3.83;2.10;;;13.90;99.70;;;;;;5005699;28;20379;-65
2021/04/06 12:26:58;;;;;;;6.55;2.90;;;13.30;99.70;;;;;;5012386;28;20022;-65
2021/04/06 12:29:23;;;;;;;2.85;2.33;;;13.30;99.90;;;;;;5010176;28;20037;-65
2021/04/06 12:31:49;;;;;;;9.45;2.88;;;13.40;99.90;;;;;;5012141;28;20630;-63
2021/04/06 12:34:15;;;;;;;5.47;2.85;;;13.50;99.70;;;;;;5009981;28;20049;-65
2021/04/06 12:36:40;;;;;;;7.07;2.50;;;14.30;98.40;;;;;;5011565;28;20025;-65
2021/04/06 12:39:06;;;;;;;7.93;2.80;;;14.20;98.20;;;;;;5010114;28;20509;-64
2021/04/06 12:41:32;;;;;;;5.90;2.50;;;13.90;97.60;;;;;;5004218;28;20018;-64
2021/04/06 12:43:58;;;;;;;10.68;3.10;;;14.00;98.10;;;;;;5010574;28;20030;-64
2021/04/06 12:46:24;;;;;;;10.88;3.00;;;14.90;96.70;;;;;;5010502;28;20032;-65
2021/04/06 12:48:50;;;;;;;6.10;2.55;;;14.80;97.30;;;;;;5009584;28;20465;-65
2021/04/06 12:51:15;;;;;;;4.38;3.13;;;15.10;96.60;;;;;;5011464;28;20037;-65
2021/04/06 12:53:41;;;;;;;4.88;2.33;;;14.80;96.10;;;;;;5006970;28;20068;-65
2021/04/06 12:56:07;;;;;;;8.95;3.15;;;14.90;96.50;;;;;;5001431;28;20022;-64
2021/04/06 12:58:32;;;;;;;17.02;2.80;;;14.80;95.70;;;;;;4995110;28;20407;-65